Snowball 5K & 1K 2019

Age Group Results

December 21, 2019


Split Second Productions

5k

Female 14 and Under

Place Name City Bib No Age Overall Time Back Chip Time Gun Time Chip Diff Pace
1 Lorelei Otto San Antonio TX 4290 12 33   25:39.52 25:42.02 0:02.50 8:15/M
2 Margaret Hunter San Antonio TX 4414 9 47 1:35.77 27:15.29 27:18.79 0:03.50 8:46/M
3 Finley Bennett San Antonio TX 4031 9 94 6:39.45 32:18.97 32:46.02 0:27.05 10:23/M
4 Ashlyn Leininger Boerne TX 4235 12 98 6:56.98 32:36.50 32:42.93 0:06.43 10:29/M
5 Eliana Leininger Boerne TX 4236 10 100 7:16.66 32:56.18 33:02.96 0:06.78 10:35/M
6 Ava Cooper New Braunfels TX 4115 8 105 7:50.46 33:29.98 33:33.83 0:03.85 10:46/M
7 Kaitlyn Keller San Antonio TX 4434 13 133 11:11.80 36:51.32 37:01.02 0:09.70 11:51/M
8 Bay Lia Lopez Helotes 4241 11 144 13:30.53 39:10.05 39:37.45 0:27.40 12:36/M
9 Layla Hernandez San Antonio TX 4189 4 149 14:17.36 39:56.88 40:26.37 0:29.49 12:51/M
10 Divinity Ramirez Seguin TX 4509 9 156 14:49.19 40:28.71 40:32.13 0:03.42 13:01/M
11 Cadence Johnson San Antonio TX 4206 8 161 15:40.72 41:20.24 41:42.66 0:22.42 13:18/M
12 Kyra Lakey San Antonio TX 4229 14 167 16:26.51 42:06.03 42:11.97 0:05.94 13:32/M
13 Jayla Mitchell San Antonio TX 4269 9 177 19:01.97 44:41.49 44:53.31 0:11.82 14:22/M
14 Julia Cooper New Braunfels TX 4116 5 179 19:36.60 45:16.12 45:20.76 0:04.64 14:33/M
15 October Rozenboom-Bullard Fort Worth TX 4327 2 193 24:00.91 49:40.43 50:22.68 0:42.25 15:58/M
16 Alyanna Ruiz Schertz 4328 10 212 29:39.08 55:18.60 55:49.89 0:31.29 17:47/M
17 Allison Garces Corpus Christi TX 4156 11 222 30:42.52 56:22.04 56:56.09 0:34.05 18:07/M
18 Addison Hale New Braunfels TX 4179 3 243 36:44.19 1:02:23.71 1:03:16.59 0:52.88 20:04/M
 

Female 15 to 19

Place Name City Bib No Age Overall Time Back Chip Time Gun Time Chip Diff Pace
1 Emma Lopez 4244 15 2   20:51.58 21:00.84 0:09.26 6:42/M
2 Kendall Leininger Boerne TX 4237 15 25 4:04.51 24:56.09 25:02.28 0:06.19 8:01/M
3 Marissa Lakey San Antonio TX 4230 17 71 8:41.52 29:33.10 29:39.74 0:06.64 9:30/M
4 Hannah Reasoner Spring Branch TX 4309 19 131 15:26.19 36:17.77 36:23.05 0:05.28 11:40/M
5 Analaura Avitua San Antonio TX 3980 19 139 17:28.87 38:20.45 38:30.92 0:10.47 12:20/M
6 Jaimie Warren San Antonio TX 4392 17 172 22:27.80 43:19.38 43:29.60 0:10.22 13:56/M
7 Xianna Ontiveros San Antonio TX 4442 15 230 35:48.92 56:40.50 56:40.50 18:13/M
 

Female 20 to 29

Place Name City Bib No Age Overall Time Back Chip Time Gun Time Chip Diff Pace
1 Marianne Hernandez San Antonio TX 4191 22 12   23:24.43 23:28.11 0:03.68 7:32/M
2 Aeriel Corey San Antonio TX 4117 27 27 1:40.19 25:04.62 25:34.08 0:29.46 8:04/M
3 Mari Hurtado San Antonio TX 4203 25 30 1:58.45 25:22.88 25:29.44 0:06.56 8:10/M
4 Erin Garza San Antonio TX 4165 28 36 2:35.83 26:00.26 26:17.18 0:16.92 8:22/M
5 Brooke Matula San Antonio TX 4257 28 44 3:07.53 26:31.96 26:31.96 8:32/M
6 Kaitlynn Hawley San Antonio TX 4182 26 46 3:41.43 27:05.86 27:15.36 0:09.50 8:43/M
7 Nicole Alatorre San Antonio TX 4415 22 52 4:29.46 27:53.89 28:09.58 0:15.69 8:58/M
8 Dawniele Hilbig 4196 27 54 4:33.56 27:57.99 28:04.37 0:06.38 9:00/M
9 Savannah Wessies San Antonio TX 4400 25 67 5:40.09 29:04.52 29:43.62 0:39.10 9:21/M
10 Margaret Genzer San Antonio TX 4168 28 90 8:38.25 32:02.68 32:18.01 0:15.33 10:18/M
11 Danielle Salvador San Antonio TX 4336 25 91 8:38.50 32:02.93 32:18.07 0:15.14 10:18/M
12 Margarita Ruiz Somerset TX 4505 23 109 10:13.21 33:37.64 34:00.22 0:22.58 10:49/M
13 Crystal Thompson Von Ormy TX 4364 28 115 10:55.59 34:20.02 34:35.44 0:15.42 11:02/M
14 Olivia Gray San Antonio TX 4172 21 137 13:59.09 37:23.52 37:33.16 0:09.64 12:01/M
15 Amanda Thompson San Antonio TX 4363 26 157 17:15.40 40:39.83 41:10.63 0:30.80 13:05/M
16 Karleigh Camarena Converse TX 4413 28 164 18:12.19 41:36.62 41:55.84 0:19.22 13:23/M
17 Jenevieve Guillen San Antonio TX 4176 27 200 29:48.65 53:13.08 54:12.64 0:59.56 17:07/M
18 Carolina Herrera Schertz 4193 21 206 31:28.28 54:52.71 55:55.78 1:03.07 17:39/M
19 Elizabeth Freeman 4154 28 217 32:35.14 55:59.57 56:11.05 0:11.48 18:00/M
20 Caley Richardson San Antonio TX 4321 28 231 34:32.57 57:57.00 58:32.28 0:35.28 18:38/M
21 Carey Martin San Antonio TX 4249 27 240 37:09.43 1:00:33.86 1:01:04.96 0:31.10 19:28/M
22 Malory Barraza Corpus Christi TX 4000 26 246 41:50.00 1:05:14.43 1:05:49.29 0:34.86 20:59/M
23 Kathryn Kennedy 4217 20 256 46:35.37 1:09:59.80 1:11:00.31 1:00.51 22:30/M
24 Christina Troy San Antonio TX 4370 20 257 46:37.79 1:10:02.22 1:11:05.21 1:02.99 22:31/M
 

Female 30 to 39

Place Name City Bib No Age Overall Time Back Chip Time Gun Time Chip Diff Pace
1 Lindsey Gipson Schertz 4171 33 24   24:43.53 24:49.40 0:05.87 7:57/M
2 Dawn Walker San Antonio TX 4384 35 50 2:44.99 27:28.52 27:49.76 0:21.24 8:50/M
3 Erika Lanciault San Antonio TX 4232 39 55 3:18.87 28:02.40 28:10.51 0:08.11 9:01/M
4 Lina Eklof San Antonio TX 4502 39 63 3:58.77 28:42.30 28:51.03 0:08.73 9:14/M
5 Ammie De Hoyos San Antonio TX 4130 38 69 4:30.80 29:14.33 29:23.15 0:08.82 9:24/M
6 Angelica Cienfuegos San Antonio TX 4112 36 70 4:41.38 29:24.91 29:49.23 0:24.32 9:27/M
7 Jennifer Richards San Antonio TX 4319 38 73 5:00.37 29:43.90 29:49.87 0:05.97 9:34/M
8 Jessica Stein San Antonio TX 4356 37 81 6:12.13 30:55.66 31:10.33 0:14.67 9:57/M
9 Dayana Padilla Castroville TX 4424 30 85 6:51.24 31:34.77 31:52.31 0:17.54 10:09/M
10 Michelle Naumann San Antonio TX 4281 39 97 7:43.35 32:26.88 32:44.81 0:17.93 10:26/M
11 Megan Callaway San Antonio TX 4096 33 99 8:05.35 32:48.88 33:08.72 0:19.84 10:33/M
12 Rebecca Martinez Spring Branch TX 4256 39 120 9:56.94 34:40.47 34:56.29 0:15.82 11:09/M
13 Desiree Reed New Braunfels TX 4312 33 124 10:26.47 35:10.00 35:43.27 0:33.27 11:18/M
14 Claudia Canales San Antonio TX 4100 32 126 10:50.14 35:33.67 35:51.32 0:17.65 11:26/M
15 Amanda Martinez San Antonio TX 4252 37 128 11:11.37 35:54.90 36:10.45 0:15.55 11:33/M
16 Jennifer Larson San Antonio TX 4423 36 132 11:51.94 36:35.47 36:39.27 0:03.80 11:46/M
17 Erin Shaffer San Antonio TX 4346 32 140 13:45.70 38:29.23 38:43.68 0:14.45 12:23/M
18 Rosina Perez 4300 38 147 14:35.97 39:19.50 39:27.22 0:07.72 12:39/M
19 Francisca Hernandez San Antonio TX 4186 32 162 16:38.10 41:21.63 41:59.66 0:38.03 13:18/M
20 Jessica Lizardo Universal City TX 4239 31 168 17:37.09 42:20.62 42:39.39 0:18.77 13:37/M
21 Angie Cory San Antonio TX 4119 37 170 17:48.28 42:31.81 43:16.26 0:44.45 13:41/M
22 Shawna Mitchell San Antonio TX 4270 33 178 19:57.97 44:41.50 44:53.40 0:11.90 14:22/M
23 Kate Wagner 4381 35 187 23:42.50 48:26.03 49:22.82 0:56.79 15:34/M
24 Amanda Rozenboom Fort Worth TX 4326 31 192 24:56.24 49:39.77 50:22.67 0:42.90 15:58/M
25 Kathryn Otto San Antonio TX 4288 37 198 28:27.99 53:11.52 53:50.74 0:39.22 17:06/M
26 Ashly Lacourse Kenedy TX 4225 32 199 28:28.44 53:11.97 53:56.16 0:44.19 17:06/M
27 Leslie Clay San Antonio TX 4114 33 208 30:09.68 54:53.21 55:57.06 1:03.85 17:39/M
28 Angela Campos San Antonio TX 4098 39 209 30:33.35 55:16.88 56:07.75 0:50.87 17:47/M
29 Heather Bazzel San Antonio TX 4018 31 210 30:33.84 55:17.37 56:11.14 0:53.77 17:47/M
30 Stephanie Valle 4376 30 219 31:28.63 56:12.16 56:49.78 0:37.62 18:04/M
31 Krystal Kerr San Antonio TX 4218 33 220 31:29.08 56:12.61 56:50.27 0:37.66 18:04/M
32 Jennifer Rios San Antonio TX 4322 32 223 31:44.21 56:27.74 56:48.68 0:20.94 18:09/M
33 Sara Litzer San Antonio TX 4238 36 228 31:56.29 56:39.82 56:45.63 0:05.81 18:13/M
34 Julia Beverley San Antonio TX 4056 36 229 31:56.78 56:40.31 56:46.08 0:05.77 18:13/M
35 Yuchien Erica Chen San Antonio TX 4111 35 232 33:15.55 57:59.08 58:33.56 0:34.48 18:39/M
36 Jolynn Garces Mathis TX 4157 31 247 40:55.16 1:05:38.69 1:06:15.65 0:36.96 21:06/M
 

Female 40 to 49

Place Name City Bib No Age Overall Time Back Chip Time Gun Time Chip Diff Pace
1 Trisha Stavinoha San Antonio TX 4354 43 4   21:27.91 21:31.23 0:03.32 6:54/M
2 Amme Blair 4059 47 15 2:34.15 24:02.06 24:14.35 0:12.29 7:44/M
3 Cecily Walker San Antonio TX 4383 40 20 2:58.60 24:26.51 24:50.78 0:24.27 7:52/M
4 Melody Riou Devine TX 4323 41 40 4:42.99 26:10.90 26:22.83 0:11.93 8:25/M
5 Sandra Spriegel New Braunfels TX 4353 45 51 6:13.45 27:41.36 27:41.36 8:54/M
6 Connie Thill San Antonio TX 4362 46 59 7:02.54 28:30.45 29:51.38 1:20.93 9:10/M
7 Jennifer Pineda San Antonio TX 4303 44 76 9:00.42 30:28.33 30:36.88 0:08.55 9:48/M
8 Tracey Blankenship Spring Branch TX 4081 40 77 9:01.73 30:29.64 30:54.85 0:25.21 9:48/M
9 Krista Shuler San Antonio TX 4347 46 78 9:02.12 30:30.03 30:42.86 0:12.83 9:48/M
10 Judi Ulmer San Antonio TX 4374 42 80 9:27.51 30:55.42 31:10.12 0:14.70 9:57/M
11 Amber Backlund Spring Branch TX 3984 41 83 9:33.84 31:01.75 31:09.72 0:07.97 9:59/M
12 Danell Castro Helotes 4419 47 87 10:18.26 31:46.17 32:10.53 0:24.36 10:13/M
13 Diane Deleon San Antonio TX 4136 48 92 10:41.96 32:09.87 32:13.23 0:03.36 10:21/M
14 Sarah Wannarka San Antonio TX 4388 47 95 10:51.68 32:19.59 32:32.04 0:12.45 10:24/M
15 Ann Sacchetti 4331 49 101 11:30.33 32:58.24 33:23.99 0:25.75 10:36/M
16 Sherry Culvahouse Corpus Christi TX 4128 41 102 11:39.38 33:07.29 33:07.29 10:39/M
17 Rosalyn Walsh San Antonio TX 4387 49 106 12:05.04 33:32.95 33:53.92 0:20.97 10:47/M
18 Amy Griffin Corpus Christi TX 4174 43 111 12:35.29 34:03.20 34:03.20 10:57/M
19 Michelle Jones Corpus Christi TX 4211 48 112 12:35.37 34:03.28 34:03.28 10:57/M
20 Elda Martinez San Antonio TX 4255 49 114 12:47.36 34:15.27 34:31.40 0:16.13 11:01/M
21 Michelle Garcia San Antonio TX 4162 41 121 13:21.02 34:48.93 35:00.59 0:11.66 11:12/M
22 Jennifer Garza San Antonio TX 4166 43 138 16:45.16 38:13.07 38:21.57 0:08.50 12:17/M
23 Sarah Del Toro San Antonio TX 4503 43 151 18:37.93 40:05.84 40:26.62 0:20.78 12:54/M
24 Delia Inclan San Antonio TX 4204 48 153 18:54.71 40:22.62 40:50.80 0:28.18 12:59/M
25 Bobby Torres San Antonio TX 4368 45 159 19:47.43 41:15.34 41:30.98 0:15.64 13:16/M
26 Genevieve Reyes San Antonio TX 4315 41 169 21:02.84 42:30.75 43:15.25 0:44.50 13:40/M
27 Norma Steiner San Antonio TX 4357 49 176 22:50.64 44:18.55 44:51.23 0:32.68 14:15/M
28 Christina Lakey San Antonio TX 4226 43 185 26:11.63 47:39.54 47:47.34 0:07.80 15:19/M
29 Kristen Lynch 4247 44 189 26:58.90 48:26.81 49:23.04 0:56.23 15:35/M
30 Julia Yoder San Antonio TX 4405 49 191 27:57.84 49:25.75 50:03.52 0:37.77 15:54/M
31 Agnes Dabb 4129 42 215 34:25.38 55:53.29 56:43.17 0:49.88 17:58/M
32 Melanie Villegas San Antonio TX 4507 40 227 35:09.31 56:37.22 57:00.29 0:23.07 18:12/M
33 Martha Negrete-Flores New Braunfels TX 4282 47 233 36:31.33 57:59.24 58:33.25 0:34.01 18:39/M
34 Georgeana Ruiz Schertz 4330 44 234 36:37.59 58:05.50 58:38.33 0:32.83 18:41/M
35 Nicque Ontiveros San Antonio TX 4439 43 236 37:41.21 59:09.12 59:09.12 19:01/M
36 Zsuzsi Bresnahan San Antonio TX 4091 43 238 38:48.96 1:00:16.87 1:00:59.48 0:42.61 19:23/M
37 Debbie Barraza Corpus Christi TX 3994 46 250 44:19.36 1:05:47.27 1:06:24.34 0:37.07 21:09/M
 

Female 50 to 59

Place Name City Bib No Age Overall Time Back Chip Time Gun Time Chip Diff Pace
1 Nadine Reasoner Spring Branch TX 4310 51 11   23:10.32 23:14.56 0:04.24 7:27/M
2 Linda Segundo Robstown TX 4342 56 48 4:06.07 27:16.39 27:16.39 8:46/M
3 Janice Troy San Antonio TX 4371 54 56 4:56.83 28:07.15 28:57.92 0:50.77 9:02/M
4 Melissa Zemkosky San Antonio TX 4429 50 123 11:57.04 35:07.36 35:26.26 0:18.90 11:18/M
5 Adrianna Ernst San Antonio TX 4501 53 125 12:22.93 35:33.25 35:51.36 0:18.11 11:26/M
6 Deborrah Warren San Antonio TX 4391 55 130 12:59.19 36:09.51 36:20.03 0:10.52 11:38/M
7 Lupe Hernandez Abilene TX 4190 53 150 16:50.74 40:01.06 40:30.64 0:29.58 12:52/M
8 Sherry Carrero San Antonio TX 4103 54 171 19:35.89 42:46.21 43:58.36 1:12.15 13:45/M
9 Margaret Garcia San Antonio TX 4161 51 174 20:52.18 44:02.50 45:00.56 0:58.06 14:10/M
10 Sally Dunaisky Schertz 4143 58 183 23:53.15 47:03.47 47:32.12 0:28.65 15:08/M
11 Sylvia Valdez San Antonio TX 4375 55 184 23:55.76 47:06.08 48:03.09 0:57.01 15:09/M
12 Kathy Johnson Spring Branch TX 4207 59 186 24:53.34 48:03.66 48:30.85 0:27.19 15:27/M
13 Tonya Hope 4198 52 195 27:59.79 51:10.11 51:48.09 0:37.98 16:27/M
14 Leticia Garza San Antonio TX 4167 53 202 30:32.89 53:43.21 54:03.22 0:20.01 17:16/M
15 Brenda Scott San Antonio TX 4506 53 226 33:24.29 56:34.61 56:57.42 0:22.81 18:12/M
16 Holly Thompson Von Ormy TX 4365 50 244 39:52.81 1:03:03.13 1:03:18.14 0:15.01 20:16/M
17 Laurie Beth Scantlin Devine TX 4340 54 245 39:53.70 1:03:04.02 1:03:19.35 0:15.33 20:17/M
18 Janet Montgomery San Antonio TX 4274 59 255 46:36.48 1:09:46.80 1:10:34.91 0:48.11 22:26/M
 

Female 60 to 69

Place Name City Bib No Age Overall Time Back Chip Time Gun Time Chip Diff Pace
1 Donna Balderston San Antonio TX 3993 60 143   39:09.00 39:28.38 0:19.38 12:35/M
2 Jamie Whitfield San Antonio TX 4403 67 194 11:10.13 50:19.13 50:47.76 0:28.63 16:11/M
3 Maria Watkins San Antonio TX 4394 65 197 13:43.20 52:52.20 53:30.14 0:37.94 17:00/M
4 Maria Solecki 4351 68 214 16:43.45 55:52.45 56:44.53 0:52.08 17:58/M
5 Debra De Los Santos 4132 65 216 16:49.20 55:58.20 56:14.98 0:16.78 18:00/M
6 Judie Montgomery New Caney TX 4276 65 252 30:28.29 1:09:37.29 1:10:33.14 0:55.85 22:23/M
 

Female 70 and Over

Place Name City Bib No Age Overall Time Back Chip Time Gun Time Chip Diff Pace
1 Helen Jonsson Spring Branch TX 4214 75 196   52:42.65 53:42.55 0:59.90 16:57/M
 

Male 14 and Under

Place Name City Bib No Age Overall Time Back Chip Time Gun Time Chip Diff Pace
1 Greydn Richards 4318 13 3   20:56.99 20:59.14 0:02.15 6:44/M
2 Logan Walker San Antonio TX 4386 12 5 1:24.44 22:21.43 22:24.35 0:02.92 7:11/M
3 Landry Walker San Antonio TX 4385 10 7 2:02.86 22:59.85 23:02.51 0:02.66 7:24/M
4 Tate Sacchetti San Antonio TX 4332 10 14 3:03.12 24:00.11 24:02.57 0:02.46 7:43/M
5 Jay Hunter San Antonio TX 4201 11 17 3:17.97 24:14.96 24:17.08 0:02.12 7:48/M
6 Jackson Blankenship Spring Branch TX 4073 10 19 3:27.46 24:24.45 24:26.92 0:02.47 7:51/M
7 Brady Rees Spring Branch TX 4313 9 23 3:35.96 24:32.95 24:36.25 0:03.30 7:54/M
8 Gregorio Quiroga Uvalde TX 4307 12 32 4:37.73 25:34.72 25:37.79 0:03.07 8:13/M
9 Anthony Naumann San Antonio TX 4280 14 37 5:04.11 26:01.10 26:06.80 0:05.70 8:22/M
10 Eli Blankenship Spring Branch TX 4072 8 43 5:31.91 26:28.90 26:53.88 0:24.98 8:31/M
11 Logan Otto San Antonio TX 4289 9 60 7:36.12 28:33.11 28:35.63 0:02.52 9:11/M
12 Mason Elseth San Antonio TX 4144 9 68 8:12.37 29:09.36 29:12.19 0:02.83 9:22/M
13 Oz White 4402 10 72 8:39.89 29:36.88 29:39.23 0:02.35 9:31/M
14 Crissangel Avitua San Antonio TX 3982 12 96 11:24.36 32:21.35 32:30.45 0:09.10 10:24/M
15 Camden Martinez Spring Branch TX 4253 14 118 13:41.51 34:38.50 34:54.74 0:16.24 11:08/M
16 Alistair Messenger Schertz TX 4262 8 145 18:18.58 39:15.57 39:39.05 0:23.48 12:37/M
17 Kaeden Lakey San Antonio TX 4228 8 160 20:18.56 41:15.55 41:22.22 0:06.67 13:16/M
18 Jackson Bradley San Antonio TX 4420 13 163 20:30.04 41:27.03 42:08.79 0:41.76 13:20/M
19 Euan Berryman 4035 9 213 34:44.64 55:41.63 56:32.48 0:50.85 17:54/M
20 Noah Garces Mathis TX 4159 3 248 44:44.53 1:05:41.52 1:06:15.92 0:34.40 21:07/M
 

Male 15 to 19

Place Name City Bib No Age Overall Time Back Chip Time Gun Time Chip Diff Pace
1 Avery Richards 4317 15 1   20:19.54 20:22.25 0:02.71 6:32/M
2 Eric Franco San Antonio TX 4152 17 9 2:46.69 23:06.23 23:12.80 0:06.57 7:26/M
3 Ty Reasoner Spring Branch TX 4311 17 10 2:49.01 23:08.55 23:12.50 0:03.95 7:26/M
4 Michael Lakey San Antonio TX 4231 16 74 9:27.53 29:47.07 29:49.83 0:02.76 9:35/M
5 Derek Moczygemba Schertz 4272 17 182 26:43.46 47:03.00 47:31.61 0:28.61 15:08/M
6 Joe Herrera Schertz 4195 19 205 34:33.07 54:52.61 55:55.69 1:03.08 17:39/M
 

Male 20 to 29

Place Name City Bib No Age Overall Time Back Chip Time Gun Time Chip Diff Pace
1 Ryan Oxenreiter San Antonio TX 4291 26 6   22:36.39 22:41.79 0:05.40 7:16/M
2 Isaac Vasquez Austin TX 4377 27 18 1:40.68 24:17.07 24:32.99 0:15.92 7:49/M
3 Servando Cruz San Antonio TX 4124 25 21 1:51.25 24:27.64 24:47.52 0:19.88 7:52/M
4 Matthew Crockett San Antonio TX 4122 23 22 1:55.91 24:32.30 24:36.06 0:03.76 7:53/M
5 Eric Bueno San Antonio TX 4094 23 29 2:36.74 25:13.13 25:33.77 0:20.64 8:07/M
6 Carlos De La Torre San Antonio TX 4131 27 38 3:28.29 26:04.68 26:12.95 0:08.27 8:23/M
7 Kyle Hawley San Antonio TX 4183 28 41 3:39.65 26:16.04 26:25.52 0:09.48 8:27/M
8 JD Crumedy San Antonio TX 4123 27 49 4:41.10 27:17.49 27:43.17 0:25.68 8:47/M
9 Matthew Hilbig San Antonio TX 4197 27 53 5:21.49 27:57.88 28:04.62 0:06.74 9:00/M
10 Stephen Inclan San Antonio TX 4205 29 86 9:06.96 31:43.35 32:10.91 0:27.56 10:12/M
11 Stephan Moreno San Antonio TX 4278 26 89 9:22.17 31:58.56 32:22.06 0:23.50 10:17/M
12 Omar Rodriguez Somerset TX 4325 24 108 11:00.73 33:37.12 33:59.63 0:22.51 10:49/M
13 Jared Theus San Antonio TX 4361 23 110 11:03.38 33:39.77 33:48.11 0:08.34 10:49/M
14 Jordan Campbell 4097 28 117 11:58.17 34:34.56 34:51.33 0:16.77 11:07/M
15 Zach Garner San Antonio TX 4163 28 135 14:35.12 37:11.51 37:48.51 0:37.00 11:58/M
 

Male 30 to 39

Place Name City Bib No Age Overall Time Back Chip Time Gun Time Chip Diff Pace
1 Brian Torres San Antonio 4428 36 8   23:00.37 23:13.13 0:12.76 7:24/M
2 Cameron Lange San Antonio TX 4234 37 26 2:00.65 25:01.02 25:12.11 0:11.09 8:03/M
3 Clayton Smith Bulverde 4350 34 28 2:07.00 25:07.37 25:16.81 0:09.44 8:05/M
4 Christopher Garza San Antonio TX 4164 30 35 2:56.75 25:57.12 26:14.31 0:17.19 8:21/M
5 Erbey Rendon Castroville TX 4426 31 39 3:08.40 26:08.77 26:26.32 0:17.55 8:24/M
6 Jeffrey Blankenship Spring Branch TX 4076 39 42 3:28.36 26:28.73 26:53.73 0:25.00 8:31/M
7 Brian Adams 3972 38 61 5:33.65 28:34.02 28:41.74 0:07.72 9:11/M
8 Eduardo Soto San Antonio TX 4412 30 64 5:49.89 28:50.26 29:03.45 0:13.19 9:16/M
9 William Tiedemann San Antonio TX 4366 36 84 8:17.91 31:18.28 31:34.89 0:16.61 10:04/M
10 Noe Villarreal San Antonio TX 4379 31 88 8:57.11 31:57.48 32:16.98 0:19.50 10:17/M
11 Mike Riou Devine TX 4324 39 104 10:19.28 33:19.65 33:31.03 0:11.38 10:43/M
12 Bruce Walker San Antonio TX 4382 35 107 10:36.64 33:37.01 33:59.11 0:22.10 10:49/M
13 Chris Orem San Antonio TX 4285 37 113 11:13.69 34:14.06 34:26.56 0:12.50 11:00/M
14 Blake Callaway San Antonio TX 4095 35 116 11:21.68 34:22.05 34:43.38 0:21.33 11:03/M
15 Jose Lizardo Universal City TX 4240 35 141 15:37.19 38:37.56 38:54.98 0:17.42 12:25/M
16 Bradford Bennett San Antonio TX 4029 39 142 15:42.04 38:42.41 39:09.50 0:27.09 12:27/M
17 Christopher Otto San Antonio TX 4287 39 148 16:22.66 39:23.03 39:43.49 0:20.46 12:40/M
18 Justin Hernandez San Antonio TX 4188 32 173 21:01.83 44:02.20 44:41.99 0:39.79 14:10/M
19 David Campos San Antonio TX 4099 39 180 22:19.97 45:20.34 46:10.21 0:49.87 14:35/M
20 Joshua Wagner San Antonio TX 4380 35 188 25:26.32 48:26.69 49:23.50 0:56.81 15:35/M
21 Javier Ortega San Antonio TX 4286 37 203 30:50.36 53:50.73 54:22.30 0:31.57 17:19/M
22 Sean Reynolds San Antonio TX 4316 37 207 31:52.52 54:52.89 55:55.54 1:02.65 17:39/M
23 Will Bazzel San Antonio TX 4027 35 211 32:17.77 55:18.14 56:11.14 0:53.00 17:47/M
24 Ricardo De Los Santos Jr 4133 31 218 33:05.26 56:05.63 56:22.39 0:16.76 18:02/M
25 Steven Garces Mathis TX 4160 30 235 35:29.13 58:29.50 59:03.90 0:34.40 18:48/M
26 Corey Martin San Antonio TX 4250 34 239 37:32.81 1:00:33.18 1:01:04.81 0:31.63 19:28/M
27 Marc Putnam San Antonio TX 4306 32 241 37:33.61 1:00:33.98 1:01:04.89 0:30.91 19:28/M
28 Andrew Hale New Braunfels TX 4180 32 242 39:20.78 1:02:21.15 1:03:16.90 0:55.75 20:03/M
 

Male 40 to 49

Place Name City Bib No Age Overall Time Back Chip Time Gun Time Chip Diff Pace
1 Shane Richards 4320 46 13   23:43.78 23:51.28 0:07.50 7:38/M
2 Rusty Jones Corpus Christi TX 4212 48 16 0:20.79 24:04.57 24:04.57 7:44/M
3 Mike White 4401 44 34 2:11.37 25:55.15 26:20.03 0:24.88 8:20/M
4 Jaime Lopez 4245 47 58 4:30.83 28:14.61 28:24.21 0:09.60 9:05/M
5 Bob Piatt 4302 41 62 4:57.26 28:41.04 29:06.26 0:25.22 9:13/M
6 Eduardo Altamirano San Antonio TX 3979 42 82 7:13.49 30:57.27 31:19.02 0:21.75 9:57/M
7 David Moczygemba Schertz 4271 49 93 8:34.22 32:18.00 32:48.19 0:30.19 10:23/M
8 Bradford Brunkenhoefer San Antonio TX 4093 40 103 9:30.41 33:14.19 34:25.08 1:10.89 10:41/M
9 Aaron Martinez Spring Branch TX 4251 42 119 10:56.00 34:39.78 34:55.31 0:15.53 11:09/M
10 Travis Elseth San Antonio TX 4145 40 129 12:25.30 36:09.08 36:13.96 0:04.88 11:37/M
11 David Keller San Antonio TX 4435 47 134 13:14.02 36:57.80 37:06.90 0:09.10 11:53/M
12 Jon Messenger Schertz TX 4264 40 146 15:32.89 39:16.67 39:39.87 0:23.20 12:38/M
13 Micah Yoder San Antonio TX 4406 45 154 16:42.46 40:26.24 40:36.93 0:10.69 13:00/M
14 Allan Castro Helotes 4418 44 155 16:43.69 40:27.47 40:50.50 0:23.03 13:01/M
15 Greg Lakey San Antonio TX 4227 43 158 17:30.78 41:14.56 41:22.12 0:07.56 13:16/M
16 Pete Hunter San Antonio TX 4202 43 165 18:00.58 41:44.36 42:08.35 0:23.99 13:25/M
17 George Weron San Antonio TX 4397 46 190 25:21.29 49:05.07 49:53.03 0:47.96 15:47/M
18 Blaine Lopez Helotes 4243 46 201 29:31.79 53:15.57 53:42.43 0:26.86 17:08/M
19 Joe Herrera Schertz 4194 45 204 31:08.66 54:52.44 55:54.99 1:02.55 17:39/M
20 Federico Ruiz Schertz 4329 49 221 32:29.97 56:13.75 56:13.75 18:05/M
21 Neil Bresnahan San Antonio TX 4088 42 237 36:32.73 1:00:16.51 1:00:58.33 0:41.82 19:23/M
 

Male 50 to 59

Place Name City Bib No Age Overall Time Back Chip Time Gun Time Chip Diff Pace
1 Peter Fithian San Antonio TX 4150 57 45   26:40.07 26:56.10 0:16.03 8:34/M
2 Frank Corey San Antonio TX 4118 53 65 2:10.44 28:50.51 29:03.59 0:13.08 9:16/M
3 David Wessies San Antonio TX 4398 56 66 2:23.90 29:03.97 29:43.53 0:39.56 9:21/M
4 Renan Fidalgo San Antonio TX 4149 55 79 4:13.39 30:53.46 31:16.49 0:23.03 9:56/M
5 David Zemkosky San Antonio TX 4407 50 122 8:25.33 35:05.40 35:25.10 0:19.70 11:17/M
6 Rick Gray San Antonio TX 4173 59 136 10:43.34 37:23.41 37:33.05 0:09.64 12:01/M
7 Jonathan Bradley San Antonio TX 4421 54 166 15:12.41 41:52.48 42:33.79 0:41.31 13:28/M
8 Peter Perez San Antonio TX 4299 57 175 17:38.34 44:18.41 44:51.48 0:33.07 14:15/M
9 Matt Johnson Spring Branch TX 4208 59 181 19:20.59 46:00.66 46:27.12 0:26.46 14:48/M
10 Scott Pullen Austin TX 4425 52 224 29:54.09 56:34.16 56:57.82 0:23.66 18:11/M
11 Stephen Barraza Corpus Christi TX 4012 51 249 39:03.74 1:05:43.81 1:06:21.79 0:37.98 21:08/M
12 Mike Troy San Antonio TX 4372 55 258 43:25.82 1:10:05.89 1:11:05.90 1:00.01 22:32/M
 

Male 60 to 69

Place Name City Bib No Age Overall Time Back Chip Time Gun Time Chip Diff Pace
1 Woody Wilson Pleasanton TX 4404 65 31   25:30.18 25:43.31 0:13.13 8:12/M
2 Dean Jonsson Spring Branch TX 4213 68 57 2:39.02 28:09.20 29:18.00 1:08.80 9:03/M
3 Steve Lanciault San Antonio TX 4233 60 75 4:56.32 30:26.50 30:33.78 0:07.28 9:47/M
4 Scotty Dogg San Antonio TX 4142 65 127 10:05.25 35:35.43 35:59.53 0:24.10 11:27/M
5 Juan C Hernandez Abilene TX 4187 68 152 14:42.28 40:12.46 41:19.45 1:06.99 12:56/M
6 Medardo Dela Cruz San Antonio TX 4135 60 251 43:35.66 1:09:05.84 1:10:12.05 1:06.21 22:13/M
7 Billy Montgomery New Caney TX 4273 65 253 44:07.93 1:09:38.11 1:10:35.02 0:56.91 22:23/M
8 John Montgomery Alice TX 4500 66 254 44:14.55 1:09:44.73 1:10:33.25 0:48.52 22:26/M
 

Male 70 and Over

Place Name City Bib No Age Overall Time Back Chip Time Gun Time Chip Diff Pace
1 Don Krumrey Hondo TX 4224 74 225   56:34.39 57:04.14 0:29.75 18:11/M